createdAt,value
2022-08-28T00:00:32.146Z,25.70
2022-08-28T00:03:10.366Z,25.70
2022-08-28T00:05:42.249Z,25.68
2022-08-28T00:08:14.222Z,25.66
2022-08-28T00:10:42.816Z,25.67
2022-08-28T00:13:18.504Z,25.61
2022-08-28T00:15:49.107Z,25.59
2022-08-28T00:18:17.603Z,25.60
2022-08-28T00:20:46.467Z,25.62
2022-08-28T00:23:14.960Z,25.62
2022-08-28T00:25:42.516Z,25.67
2022-08-28T00:28:23.400Z,25.68
2022-08-28T00:30:59.057Z,25.64
2022-08-28T00:33:33.038Z,25.66
2022-08-28T00:36:01.465Z,25.69
2022-08-28T00:38:29.778Z,25.69
2022-08-28T00:41:03.719Z,25.69
2022-08-28T00:43:46.785Z,25.69
2022-08-28T00:46:21.792Z,25.68
2022-08-28T00:48:50.529Z,25.69
2022-08-28T00:51:38.647Z,25.69
2022-08-28T00:54:08.275Z,25.69
2022-08-28T00:56:37.670Z,25.69
2022-08-28T00:59:09.156Z,25.66
2022-08-28T01:01:39.265Z,25.67
2022-08-28T01:04:07.407Z,25.69
2022-08-28T01:06:36.807Z,25.68
2022-08-28T01:09:05.677Z,25.67
2022-08-28T01:11:33.546Z,25.67
2022-08-28T01:14:05.094Z,25.66
2022-08-28T01:16:33.964Z,25.66
2022-08-28T01:19:09.905Z,25.66
2022-08-28T01:21:48.560Z,25.64
2022-08-28T01:24:18.906Z,25.60
2022-08-28T01:26:47.185Z,25.59
2022-08-28T01:29:14.750Z,25.59
2022-08-28T01:31:43.080Z,25.56
2022-08-28T01:34:13.031Z,25.56
2022-08-28T01:36:41.957Z,25.57
2022-08-28T01:39:14.033Z,25.55
2022-08-28T01:41:45.842Z,25.56
2022-08-28T01:44:15.717Z,25.57
2022-08-28T01:46:46.737Z,25.56
2022-08-28T01:49:14.452Z,25.57
2022-08-28T01:51:42.350Z,25.58
2022-08-28T01:54:11.970Z,25.59
2022-08-28T01:56:40.645Z,25.59
2022-08-28T01:59:10.055Z,25.61
2022-08-28T02:01:38.163Z,25.58
2022-08-28T02:04:06.645Z,25.57
2022-08-28T02:06:34.781Z,25.52
2022-08-28T02:09:02.768Z,25.48
2022-08-28T02:11:32.128Z,25.52
2022-08-28T02:14:00.942Z,25.52
2022-08-28T02:16:29.181Z,25.51
2022-08-28T02:18:57.320Z,25.51
2022-08-28T02:21:25.317Z,25.49
2022-08-28T02:23:53.413Z,25.45
2022-08-28T02:26:20.956Z,25.45
2022-08-28T02:28:48.412Z,25.46
2022-08-28T02:31:16.286Z,25.47
2022-08-28T02:33:45.078Z,25.48
2022-08-28T02:36:14.604Z,25.48
2022-08-28T02:38:43.952Z,25.49
2022-08-28T02:41:12.518Z,25.47
2022-08-28T02:43:40.384Z,25.45
2022-08-28T02:46:08.544Z,25.45
2022-08-28T02:48:38.646Z,25.46
2022-08-28T02:51:13.112Z,25.46
2022-08-28T02:53:42.114Z,25.45
2022-08-28T02:56:10.604Z,25.45
2022-08-28T02:58:39.451Z,25.45
2022-08-28T03:01:10.815Z,25.43
2022-08-28T03:03:40.878Z,25.41
2022-08-28T03:06:12.150Z,25.40
2022-08-28T03:08:41.974Z,25.43
2022-08-28T03:11:09.648Z,25.42
2022-08-28T03:13:37.628Z,25.37
2022-08-28T03:16:05.293Z,25.31
2022-08-28T03:18:33.228Z,25.32
2022-08-28T03:21:01.305Z,25.33
2022-08-28T03:23:29.380Z,25.29
2022-08-28T03:25:59.460Z,25.27
2022-08-28T03:28:29.308Z,25.26
2022-08-28T03:30:57.900Z,25.28
2022-08-28T03:33:26.764Z,25.29
2022-08-28T03:35:55.537Z,25.30
2022-08-28T03:38:23.843Z,25.32
2022-08-28T03:40:53.544Z,25.32
2022-08-28T03:43:23.511Z,25.32
2022-08-28T03:46:00.096Z,25.33
2022-08-28T03:48:31.208Z,25.35
2022-08-28T03:51:00.285Z,25.34
2022-08-28T03:53:29.511Z,25.36
2022-08-28T03:55:57.984Z,25.33
2022-08-28T03:58:26.080Z,25.29
2022-08-28T04:00:53.513Z,25.26
2022-08-28T04:03:21.577Z,25.28
2022-08-28T04:05:49.077Z,25.30
2022-08-28T04:08:19.411Z,25.31
2022-08-28T04:10:48.155Z,25.28
2022-08-28T04:13:17.929Z,25.28
2022-08-28T04:15:46.433Z,25.25
2022-08-28T04:18:14.449Z,25.25
2022-08-28T04:20:42.235Z,25.27
2022-08-28T04:23:13.890Z,25.24
2022-08-28T04:25:41.695Z,25.20
2022-08-28T04:28:09.145Z,25.21
2022-08-28T04:30:36.806Z,25.23
2022-08-28T04:33:06.088Z,25.23
2022-08-28T04:35:33.672Z,25.22
2022-08-28T04:38:02.517Z,25.20
2022-08-28T04:40:33.182Z,25.20
2022-08-28T04:43:00.765Z,25.20
2022-08-28T04:45:28.211Z,25.16
2022-08-28T04:47:55.876Z,25.14
2022-08-28T04:50:23.365Z,25.19
2022-08-28T04:52:51.874Z,25.16
2022-08-28T04:55:24.393Z,25.17
2022-08-28T04:58:07.338Z,25.19
2022-08-28T05:00:38.390Z,25.20
2022-08-28T05:03:05.841Z,25.22
2022-08-28T05:05:34.189Z,25.21
2022-08-28T05:08:01.889Z,25.22
2022-08-28T05:10:29.758Z,25.21
2022-08-28T05:12:57.194Z,25.19
2022-08-28T05:15:24.905Z,25.20
2022-08-28T05:17:52.306Z,25.22
2022-08-28T05:20:19.882Z,25.18
2022-08-28T05:22:48.113Z,25.22
2022-08-28T05:25:15.681Z,25.24
2022-08-28T05:27:43.184Z,25.26
2022-08-28T05:30:11.556Z,25.28
2022-08-28T05:32:42.193Z,25.29
2022-08-28T05:35:09.704Z,25.27
2022-08-28T05:37:38.322Z,25.28
2022-08-28T05:40:06.417Z,25.28
2022-08-28T05:42:38.785Z,25.30
2022-08-28T05:45:08.050Z,25.32
2022-08-28T05:47:35.572Z,25.32
2022-08-28T05:50:03.480Z,25.33
2022-08-28T05:52:35.145Z,25.32
2022-08-28T05:55:02.548Z,25.32
2022-08-28T05:57:29.990Z,25.34
2022-08-28T05:59:57.694Z,25.34
2022-08-28T06:02:25.069Z,25.36
2022-08-28T06:04:53.637Z,25.37
2022-08-28T06:07:21.565Z,25.28
2022-08-28T06:09:49.097Z,25.24
2022-08-28T06:12:17.105Z,25.29
2022-08-28T06:14:45.842Z,25.25
2022-08-28T06:17:13.838Z,25.31
2022-08-28T06:19:41.837Z,25.35
2022-08-28T06:22:12.329Z,25.38
2022-08-28T06:24:39.912Z,25.40
2022-08-28T06:27:07.496Z,25.41
2022-08-28T06:29:35.535Z,25.44
2022-08-28T06:32:07.031Z,25.45
2022-08-28T06:34:34.566Z,25.42
2022-08-28T06:37:02.314Z,25.43
2022-08-28T06:39:29.796Z,25.43
2022-08-28T06:41:57.227Z,25.48
2022-08-28T06:44:24.956Z,25.50
2022-08-28T06:46:54.346Z,25.51
2022-08-28T06:49:22.689Z,25.50
2022-08-28T06:51:50.505Z,25.48
2022-08-28T06:54:22.987Z,25.47
2022-08-28T06:56:52.075Z,25.50
2022-08-28T06:59:20.200Z,25.53
2022-08-28T07:01:47.722Z,25.55
2022-08-28T07:04:16.021Z,25.58
2022-08-28T07:06:53.798Z,25.61
2022-08-28T07:09:24.261Z,25.62
2022-08-28T07:11:53.217Z,25.63
2022-08-28T07:14:21.003Z,25.65
2022-08-28T07:16:49.082Z,25.68
2022-08-28T07:19:17.393Z,25.68
2022-08-28T07:21:45.933Z,25.70
2022-08-28T07:24:15.670Z,25.69
2022-08-28T07:26:45.075Z,25.72
2022-08-28T07:29:13.174Z,25.73
2022-08-28T07:31:45.392Z,25.75
2022-08-28T07:34:14.140Z,25.75
2022-08-28T07:36:43.501Z,25.76
2022-08-28T07:39:13.198Z,25.79
2022-08-28T07:41:42.733Z,25.80
2022-08-28T07:44:31.397Z,25.81
2022-08-28T07:47:03.971Z,25.83
2022-08-28T07:49:36.265Z,25.82
2022-08-28T07:52:05.219Z,25.82
2022-08-28T07:54:35.878Z,25.84
2022-08-28T07:57:05.144Z,25.85
2022-08-28T07:59:36.793Z,25.84
2022-08-28T08:02:05.829Z,25.86
2022-08-28T08:04:33.746Z,25.88
2022-08-28T08:07:02.584Z,25.90
2022-08-28T08:09:30.184Z,25.91
2022-08-28T08:11:58.711Z,25.94
2022-08-28T08:14:26.223Z,25.95
2022-08-28T08:16:55.143Z,25.96
2022-08-28T08:19:22.816Z,25.98
2022-08-28T08:21:55.077Z,26.01
2022-08-28T08:24:26.443Z,26.04
2022-08-28T08:27:00.942Z,26.02
2022-08-28T08:29:35.889Z,26.00
2022-08-28T08:32:07.082Z,25.98
2022-08-28T08:34:38.690Z,26.00
2022-08-28T08:37:07.180Z,26.03
2022-08-28T08:39:36.498Z,26.06
2022-08-28T08:42:07.173Z,26.09
2022-08-28T08:44:41.054Z,26.10
2022-08-28T08:47:22.091Z,26.11
2022-08-28T08:50:04.323Z,26.10
2022-08-28T08:52:59.419Z,26.11
2022-08-28T08:55:46.696Z,26.17
2022-08-28T08:58:28.591Z,26.19
2022-08-28T09:01:05.220Z,26.21
2022-08-28T09:03:48.327Z,26.20
2022-08-28T09:06:26.618Z,26.20
2022-08-28T09:09:00.046Z,26.16
2022-08-28T09:11:50.369Z,26.20
2022-08-28T09:14:42.285Z,26.24
2022-08-28T09:17:13.070Z,26.29
2022-08-28T09:19:40.707Z,26.31
2022-08-28T09:22:08.266Z,26.31
2022-08-28T09:24:38.847Z,26.32
2022-08-28T09:27:20.970Z,26.35
2022-08-28T09:29:59.427Z,26.35
2022-08-28T09:32:35.172Z,26.33
2022-08-28T09:35:24.825Z,26.32
2022-08-28T09:37:52.657Z,26.31
2022-08-28T09:40:51.850Z,26.27
2022-08-28T09:43:28.795Z,26.26
2022-08-28T09:46:05.950Z,26.23
2022-08-28T09:48:40.134Z,26.22
2022-08-28T09:51:18.099Z,26.22
2022-08-28T09:53:51.569Z,26.22
2022-08-28T09:56:33.462Z,26.22
2022-08-28T09:59:14.525Z,26.25
2022-08-28T10:01:44.808Z,26.24
2022-08-28T10:04:16.596Z,26.25
2022-08-28T10:06:52.027Z,26.26
2022-08-28T10:10:07.683Z,26.27
2022-08-28T10:13:08.543Z,26.29
2022-08-28T10:16:04.801Z,26.30
2022-08-28T10:18:36.442Z,26.35
2022-08-28T10:21:20.526Z,26.39
2022-08-28T10:23:50.948Z,26.38
2022-08-28T10:26:36.890Z,26.39
2022-08-28T10:29:22.998Z,26.40
2022-08-28T10:32:21.624Z,26.42
2022-08-28T10:35:05.506Z,26.45
2022-08-28T10:38:17.845Z,26.46
2022-08-28T10:40:57.186Z,26.51
2022-08-28T10:43:31.765Z,26.52
2022-08-28T10:46:29.487Z,26.48
2022-08-28T10:49:06.916Z,26.46
2022-08-28T10:51:48.116Z,26.42
2022-08-28T10:54:39.584Z,26.42
2022-08-28T10:57:36.115Z,26.42
2022-08-28T11:00:18.575Z,26.45
2022-08-28T11:02:50.015Z,26.43
2022-08-28T11:05:23.237Z,26.42
2022-08-28T11:07:55.328Z,26.44
2022-08-28T11:10:28.909Z,26.42
2022-08-28T11:12:56.519Z,26.44
2022-08-28T11:15:34.214Z,26.44
2022-08-28T11:18:16.323Z,26.45
2022-08-28T11:20:59.433Z,26.47
2022-08-28T11:24:00.113Z,26.52
2022-08-28T11:26:58.373Z,26.55
2022-08-28T11:29:57.909Z,26.56
2022-08-28T11:32:31.724Z,26.56
2022-08-28T11:35:20.680Z,26.57
2022-08-28T11:37:51.620Z,26.57
2022-08-28T11:40:22.401Z,26.57
2022-08-28T11:42:50.143Z,26.60
2022-08-28T11:45:21.470Z,26.62
2022-08-28T11:47:53.998Z,26.63
2022-08-28T11:50:26.917Z,26.66
2022-08-28T11:53:22.472Z,26.65
2022-08-28T11:56:30.476Z,26.67
2022-08-28T11:59:35.015Z,26.64
2022-08-28T12:02:35.565Z,26.64
2022-08-28T12:05:09.303Z,26.63
2022-08-28T12:07:42.575Z,26.58
2022-08-28T12:10:22.366Z,26.57
2022-08-28T12:12:53.535Z,26.55
2022-08-28T12:15:30.276Z,26.57
2022-08-28T12:17:57.990Z,26.56
2022-08-28T12:20:44.856Z,26.56
2022-08-28T12:23:24.522Z,26.57
2022-08-28T12:26:01.393Z,26.56
2022-08-28T12:28:33.476Z,26.56
2022-08-28T12:31:07.102Z,26.59
2022-08-28T12:34:02.297Z,26.60
2022-08-28T12:36:29.857Z,26.60
2022-08-28T12:39:01.041Z,26.59
2022-08-28T12:41:29.500Z,26.58
2022-08-28T12:43:59.938Z,26.60
2022-08-28T12:46:36.293Z,26.60
2022-08-28T12:49:25.098Z,26.60
2022-08-28T12:52:12.336Z,26.60
2022-08-28T12:54:45.897Z,26.58
2022-08-28T12:57:18.197Z,26.58
2022-08-28T12:59:55.016Z,26.58
2022-08-28T13:02:30.400Z,26.57
2022-08-28T13:05:10.225Z,26.57
2022-08-28T13:07:47.239Z,26.56
2022-08-28T13:10:23.110Z,26.54
2022-08-28T13:13:03.346Z,26.52
2022-08-28T13:15:48.932Z,26.53
2022-08-28T13:18:41.933Z,26.52
2022-08-28T13:21:32.704Z,26.49
2022-08-28T13:24:21.444Z,26.47
2022-08-28T13:27:16.969Z,26.43
2022-08-28T13:29:59.651Z,26.34
2022-08-28T13:32:31.759Z,26.29
2022-08-28T13:35:17.397Z,26.24
2022-08-28T13:37:51.575Z,26.13
2022-08-28T13:40:55.912Z,26.05
2022-08-28T13:43:11.733Z,26.06
2022-08-28T13:45:43.933Z,26.01
2022-08-28T13:48:13.965Z,25.89
2022-08-28T13:50:46.761Z,25.76
2022-08-28T13:53:17.205Z,25.72
2022-08-28T13:55:45.529Z,25.68
2022-08-28T13:58:13.972Z,25.71
2022-08-28T14:00:45.221Z,25.69
2022-08-28T14:03:31.452Z,25.61
2022-08-28T14:05:59.363Z,25.41
2022-08-28T14:08:26.871Z,25.31
2022-08-28T14:10:54.403Z,25.22
2022-08-28T14:13:25.100Z,25.31
2022-08-28T14:15:52.644Z,25.41
2022-08-28T14:18:20.858Z,25.49
2022-08-28T14:20:48.659Z,25.49
2022-08-28T14:23:17.327Z,25.57
2022-08-28T14:25:47.288Z,25.66
2022-08-28T14:28:15.944Z,25.76
2022-08-28T14:30:50.242Z,25.81
2022-08-28T14:33:20.782Z,25.86
2022-08-28T14:35:49.184Z,25.85
2022-08-28T14:38:18.346Z,25.89
2022-08-28T14:40:45.881Z,25.92
2022-08-28T14:43:14.446Z,25.95
2022-08-28T14:45:47.340Z,25.98
2022-08-28T14:48:17.177Z,25.99
2022-08-28T14:50:48.024Z,26.03
2022-08-28T14:53:16.245Z,26.06
2022-08-28T14:55:46.906Z,26.08
2022-08-28T14:58:16.292Z,26.10
2022-08-28T15:00:51.475Z,26.11
2022-08-28T15:03:20.251Z,26.12
2022-08-28T15:05:47.950Z,25.95
2022-08-28T15:08:17.092Z,25.91
2022-08-28T15:10:45.319Z,25.91
2022-08-28T15:13:13.235Z,25.86
2022-08-28T15:15:43.166Z,25.78
2022-08-28T15:18:11.928Z,25.73
2022-08-28T15:20:41.832Z,25.77
2022-08-28T15:23:10.868Z,25.82
2022-08-28T15:25:39.151Z,25.89
2022-08-28T16:12:39.604Z,26.18
2022-08-28T16:15:21.430Z,26.19
2022-08-28T16:18:18.545Z,26.21
2022-08-28T16:21:21.965Z,26.23
2022-08-28T16:24:13.963Z,26.24
2022-08-28T16:31:04.573Z,26.24
2022-08-28T16:34:19.440Z,26.25
2022-08-28T16:37:19.657Z,26.25
2022-08-28T16:40:10.378Z,26.26
2022-08-28T16:42:51.734Z,26.28
2022-08-28T16:45:46.144Z,26.26
2022-08-28T16:48:33.187Z,26.30
2022-08-28T16:51:08.328Z,26.31
2022-08-28T16:53:56.151Z,26.33
2022-08-28T16:56:24.970Z,26.34
2022-08-28T16:58:52.988Z,26.36
2022-08-28T17:01:24.077Z,26.37
2022-08-28T17:04:06.354Z,26.39
2022-08-28T17:06:35.506Z,26.39
2022-08-28T17:09:03.959Z,26.40
2022-08-28T17:11:34.272Z,26.39
2022-08-28T17:14:03.115Z,26.39
2022-08-28T17:16:31.756Z,26.42
2022-08-28T17:18:59.736Z,26.41
2022-08-28T17:21:46.764Z,26.42
2022-08-28T17:24:14.426Z,26.43
2022-08-28T17:26:44.494Z,26.42
2022-08-28T17:29:12.480Z,26.42
2022-08-28T17:31:41.084Z,26.43
2022-08-28T17:34:10.515Z,26.43
2022-08-28T17:36:39.827Z,26.44
2022-08-28T17:39:11.626Z,26.45
2022-08-28T17:41:42.046Z,26.45
2022-08-28T17:44:10.217Z,26.45
2022-08-28T17:46:38.438Z,26.46
2022-08-28T17:49:09.165Z,26.46
2022-08-28T17:51:42.243Z,26.47
2022-08-28T17:54:18.189Z,26.48
2022-08-28T17:56:46.352Z,26.49
2022-08-28T17:59:14.846Z,26.48
2022-08-28T18:01:44.626Z,26.49
2022-08-28T18:04:13.858Z,26.51
2022-08-28T18:06:41.755Z,26.52
2022-08-28T18:09:10.740Z,26.55
2022-08-28T18:11:38.915Z,26.54
2022-08-28T18:14:07.128Z,26.57
2022-08-28T18:16:36.233Z,26.56
2022-08-28T18:19:06.168Z,26.56
2022-08-28T18:21:34.563Z,26.56
2022-08-28T18:24:02.396Z,26.58
2022-08-28T18:26:31.115Z,26.57
2022-08-28T18:28:59.343Z,26.59
2022-08-28T18:31:28.274Z,26.59
2022-08-28T18:33:56.890Z,26.61
2022-08-28T18:36:24.216Z,26.61
2022-08-28T18:38:53.807Z,26.63
2022-08-28T18:41:21.760Z,26.63
2022-08-28T18:43:58.404Z,26.64
2022-08-28T18:46:32.214Z,26.64
2022-08-28T18:49:00.286Z,26.67
2022-08-28T18:51:32.297Z,26.66
2022-08-28T18:54:02.060Z,26.67
2022-08-28T18:56:32.453Z,26.67
2022-08-28T18:59:01.930Z,26.66
2022-08-28T19:01:31.348Z,26.65
2022-08-28T19:03:58.999Z,26.59
2022-08-28T19:06:27.316Z,26.57
2022-08-28T19:08:58.315Z,26.58
2022-08-28T19:11:26.528Z,26.59
2022-08-28T19:13:54.104Z,26.59
2022-08-28T19:16:21.995Z,26.60
2022-08-28T19:18:52.751Z,26.63
2022-08-28T19:21:20.908Z,26.60
2022-08-28T19:23:55.822Z,26.58
2022-08-28T19:26:27.498Z,26.51
2022-08-28T19:28:55.598Z,26.40
2022-08-28T19:31:24.909Z,26.30
2022-08-28T19:33:53.284Z,26.27
2022-08-28T19:36:21.704Z,26.24
2022-08-28T19:38:50.578Z,26.23
2022-08-28T19:41:18.107Z,26.19
2022-08-28T19:43:46.781Z,26.15
2022-08-28T19:46:19.924Z,26.13
2022-08-28T19:48:50.296Z,26.13
2022-08-28T19:51:23.394Z,26.08
2022-08-28T19:53:57.857Z,26.01
2022-08-28T19:56:28.880Z,25.94
2022-08-28T19:59:01.398Z,25.90
2022-08-28T20:01:32.828Z,25.80
2022-08-28T20:04:01.533Z,25.78
2022-08-28T20:06:32.201Z,25.72
2022-08-28T20:09:01.011Z,25.72
2022-08-28T20:11:30.718Z,25.72
2022-08-28T20:14:04.324Z,25.71
2022-08-28T20:16:39.043Z,25.67
2022-08-28T20:19:10.533Z,25.61
2022-08-28T20:21:41.463Z,25.60
2022-08-28T20:24:11.704Z,25.59
2022-08-28T20:26:40.010Z,25.60
2022-08-28T20:29:09.492Z,25.65
2022-08-28T20:31:42.275Z,25.57
2022-08-28T20:34:11.565Z,25.51
2022-08-28T20:36:40.684Z,25.45
2022-08-28T20:39:09.378Z,25.38
2022-08-28T20:41:38.797Z,25.38
2022-08-28T20:44:09.228Z,25.41
2022-08-28T20:46:41.152Z,25.45
2022-08-28T20:49:14.569Z,25.37
2022-08-28T20:51:53.597Z,25.34
2022-08-28T20:54:25.762Z,25.33
2022-08-28T20:56:54.325Z,25.29
2022-08-28T20:59:22.338Z,25.23
2022-08-28T21:01:54.138Z,25.31
2022-08-28T21:04:22.890Z,25.29
2022-08-28T21:06:51.547Z,25.26
2022-08-28T21:09:19.039Z,25.26
2022-08-28T21:11:46.610Z,25.22
2022-08-28T21:14:14.898Z,25.20
2022-08-28T21:16:43.841Z,25.24
2022-08-28T21:19:16.119Z,25.34
2022-08-28T21:21:44.662Z,25.38
2022-08-28T21:24:14.019Z,25.30
2022-08-28T21:26:46.325Z,25.19
2022-08-28T21:29:15.309Z,25.16
2022-08-28T21:31:44.464Z,25.14
2022-08-28T21:34:12.203Z,25.12
2022-08-28T21:36:46.872Z,25.10
2022-08-28T21:39:20.636Z,25.09
2022-08-28T21:41:49.165Z,25.08
2022-08-28T21:44:17.501Z,25.07
2022-08-28T21:46:45.068Z,25.09
2022-08-28T21:49:12.746Z,25.09
2022-08-28T21:51:40.202Z,25.09
2022-08-28T21:54:08.545Z,25.08
2022-08-28T21:56:36.165Z,25.03
2022-08-28T21:59:03.930Z,25.01
2022-08-28T22:01:31.469Z,25.01
2022-08-28T22:03:59.206Z,25.01
2022-08-28T22:06:27.471Z,25.07
2022-08-28T22:08:57.088Z,25.10
2022-08-28T22:11:26.782Z,25.15
2022-08-28T22:13:55.542Z,25.15
2022-08-28T22:16:24.921Z,25.12
2022-08-28T22:18:53.233Z,25.10
2022-08-28T22:21:42.721Z,25.05
2022-08-28T22:24:13.205Z,24.95
2022-08-28T22:26:42.136Z,24.90
2022-08-28T22:29:10.829Z,24.93
2022-08-28T22:31:43.944Z,24.95
2022-08-28T22:34:14.777Z,25.02
2022-08-28T22:36:42.483Z,25.02
2022-08-28T22:39:09.980Z,24.96
2022-08-28T22:41:37.570Z,24.99
2022-08-28T22:44:06.493Z,24.97
2022-08-28T22:46:33.885Z,24.96
2022-08-28T22:49:01.501Z,25.00
2022-08-28T22:51:29.234Z,25.03
2022-08-28T22:53:56.878Z,25.00
2022-08-28T22:56:24.809Z,24.96
2022-08-28T22:58:52.533Z,24.92
2022-08-28T23:01:24.300Z,24.84
2022-08-28T23:03:52.252Z,24.88
2022-08-28T23:06:33.557Z,24.84
2022-08-28T23:09:00.993Z,24.88
2022-08-28T23:11:28.717Z,24.87
2022-08-28T23:13:56.126Z,24.87
2022-08-28T23:16:24.116Z,24.85
2022-08-28T23:19:07.848Z,24.83
2022-08-28T23:21:42.707Z,24.78
2022-08-28T23:24:13.993Z,24.77
2022-08-28T23:26:42.153Z,24.77
2022-08-28T23:29:10.608Z,24.72
2022-08-28T23:31:39.126Z,24.72
2022-08-28T23:34:07.178Z,24.69
2022-08-28T23:36:35.879Z,24.67
2022-08-28T23:39:05.221Z,24.60
2022-08-28T23:41:33.650Z,24.60
2022-08-28T23:44:04.205Z,24.61
2022-08-28T23:46:36.756Z,24.58
2022-08-28T23:49:11.321Z,24.59
2022-08-28T23:51:40.489Z,24.56
2022-08-28T23:54:09.407Z,24.51
2022-08-28T23:56:37.273Z,24.48
2022-08-28T23:59:06.217Z,24.50
